Time;durP1;ratioP1;P1;durP2;ratioP2;P2;SDS_P1;SDS_P2;PMS_P1;PMS_P2;Temp;Humidity;BMP_temperature;BMP_pressure;BME280_temperature;BME280_humidity;BME280_pressure;Samples;Min_cycle;Max_cycle;Signal;HPM_P1;HPM_P2
2022/07/18 00:00:21;;;;;;;;;9.00;9.00;;;;;28.39;26.36;101910.72;5022624;28;45455;-68
2022/07/18 00:02:46;;;;;;;;;8.00;8.00;;;;;28.34;26.70;101913.38;5015204;28;45410;-68
2022/07/18 00:05:11;;;;;;;;;8.00;8.00;;;;;28.33;26.96;101908.88;5022586;28;45386;-68
2022/07/18 00:07:37;;;;;;;;;9.00;9.00;;;;;28.15;27.56;101908.91;5021233;28;45393;-68
2022/07/18 00:10:03;;;;;;;;;9.25;7.50;;;;;28.00;27.49;101912.09;5020684;28;45620;-67
2022/07/18 00:12:28;;;;;;;;;8.00;8.00;;;;;28.01;27.13;101919.41;5019206;28;45455;-68
2022/07/18 00:14:53;;;;;;;;;8.33;7.00;;;;;28.05;27.28;101919.78;5022780;28;45542;-68
2022/07/18 00:17:19;;;;;;;;;7.33;7.33;;;;;27.93;27.28;101894.56;5011759;28;45687;-68
2022/07/18 00:19:44;;;;;;;;;7.75;7.75;;;;;27.89;28.31;101902.59;5003738;28;45273;-68
2022/07/18 00:22:09;;;;;;;;;8.00;8.00;;;;;27.82;28.27;101893.44;5014530;28;45490;-68
2022/07/18 00:24:37;;;;;;;;;9.00;9.00;;;;;27.82;27.31;101898.19;5023860;28;45215;-68
2022/07/18 00:27:04;;;;;;;;;7.67;7.67;;;;;27.78;27.43;101897.78;5018802;28;45512;-68
2022/07/18 00:29:30;;;;;;;;;10.67;10.67;;;;;27.85;27.90;101908.84;5024339;28;45514;-68
2022/07/18 00:31:55;;;;;;;;;12.67;9.67;;;;;27.76;27.60;101905.53;5014387;28;46459;-68
2022/07/18 00:34:20;;;;;;;;;8.00;7.33;;;;;27.76;28.62;101904.69;5007134;28;45277;-68
2022/07/18 00:36:46;;;;;;;;;9.00;7.00;;;;;27.81;28.00;101896.47;5014244;28;45462;-68
2022/07/18 00:39:11;;;;;;;;;10.33;8.00;;;;;27.84;28.11;101896.84;5020382;28;45429;-68
2022/07/18 00:41:37;;;;;;;;;9.33;8.00;;;;;27.81;28.46;101902.06;5016849;28;45345;-68
2022/07/18 00:44:02;;;;;;;;;9.33;8.00;;;;;27.73;28.13;101892.06;5022464;28;45323;-68
2022/07/18 00:46:29;;;;;;;;;11.33;10.33;;;;;27.76;28.51;101905.53;5017427;28;45253;-68
2022/07/18 00:48:55;;;;;;;;;8.33;8.33;;;;;27.68;29.10;101896.63;5022032;28;45262;-68
2022/07/18 00:51:21;;;;;;;;;10.00;10.00;;;;;27.63;28.72;101900.13;5010642;28;45442;-68
2022/07/18 00:53:48;;;;;;;;;6.33;4.00;;;;;27.59;29.37;101904.47;5019510;28;45211;-69
2022/07/18 00:56:16;;;;;;;;;10.67;10.00;;;;;27.59;29.32;101904.47;5016967;28;45394;-67
2022/07/18 00:58:43;;;;;;;;;10.33;10.33;;;;;27.59;29.23;101907.25;5019164;28;45832;-67
2022/07/18 01:03:54;;;;;;;;;8.67;8.67;;;;;27.53;29.38;101898.97;5009935;28;45356;-67
2022/07/18 01:06:20;;;;;;;;;10.00;8.00;;;;;27.39;29.37;101896.31;5020388;28;45412;-68
2022/07/18 01:08:45;;;;;;;;;11.00;10.00;;;;;27.25;29.27;101885.53;5022757;28;45244;-68
2022/07/18 01:11:11;;;;;;;;;10.00;10.00;;;;;27.26;29.42;101890.00;5011504;28;45940;-68
2022/07/18 01:13:37;;;;;;;;;8.00;8.00;;;;;27.23;29.88;101891.31;5020636;28;45259;-68
2022/07/18 01:16:03;;;;;;;;;10.00;8.67;;;;;27.16;30.08;101886.91;5019247;28;45423;-68
2022/07/18 01:18:29;;;;;;;;;7.00;7.00;;;;;27.06;29.93;101884.63;5020418;28;45216;-68
2022/07/18 01:20:54;;;;;;;;;13.00;12.00;;;;;27.18;29.26;101891.13;5019738;28;45528;-68
2022/07/18 01:23:20;;;;;;;;;12.00;10.00;;;;;27.22;29.36;101894.34;5018576;28;45308;-68
2022/07/18 01:25:45;;;;;;;;;8.67;8.67;;;;;27.21;29.40;101890.69;5017939;28;45431;-68
2022/07/18 01:28:11;;;;;;;;;9.33;9.33;;;;;27.19;30.06;101897.56;5022380;28;45487;-68
2022/07/18 01:30:36;;;;;;;;;9.00;9.00;;;;;27.12;30.35;101892.94;5018749;28;46732;-68
2022/07/18 01:33:03;;;;;;;;;9.67;7.67;;;;;27.05;30.11;101910.81;5014457;28;45381;-69
2022/07/18 01:35:30;;;;;;;;;12.00;10.00;;;;;27.06;29.79;101909.72;5019615;28;45484;-68
2022/07/18 01:37:59;;;;;;;;;11.33;9.33;;;;;27.05;30.31;101897.72;5012341;28;45417;-69
2022/07/18 01:40:25;;;;;;;;;8.67;8.67;;;;;27.08;30.53;101897.28;5019967;28;47857;-68
2022/07/18 01:42:51;;;;;;;;;9.00;9.00;;;;;26.97;29.82;101892.44;5020509;28;45397;-68
2022/07/18 01:45:17;;;;;;;;;8.33;6.33;;;;;26.88;30.67;101896.59;5021045;28;45560;-68
2022/07/18 01:47:43;;;;;;;;;11.67;9.67;;;;;26.82;30.80;101880.75;5017502;28;45366;-68
2022/07/18 01:50:11;;;;;;;;;9.67;9.00;;;;;26.72;31.13;101877.63;5019748;28;46182;-68
2022/07/18 01:52:36;;;;;;;;;16.00;10.00;;;;;26.70;30.76;101885.34;5017497;28;46032;-68
2022/07/18 01:55:06;;;;;;;;;15.00;10.33;;;;;26.60;30.33;101879.44;5021736;28;45220;-68
2022/07/18 01:57:31;;;;;;;;;10.33;10.33;;;;;26.63;30.76;101887.34;5016791;28;45541;-68
2022/07/18 01:59:56;;;;;;;;;12.67;8.00;;;;;26.66;30.79;101870.19;5022760;28;45376;-68
2022/07/18 02:02:22;;;;;;;;;12.25;9.50;;;;;26.52;31.19;101857.44;5016498;28;45454;-68
2022/07/18 02:04:59;;;;;;;;;9.33;9.33;;;;;26.40;31.35;101864.81;5020774;28;45477;-68
2022/07/18 02:07:30;;;;;;;;;15.00;10.67;;;;;26.28;31.26;101857.19;5018672;28;45545;-68
2022/07/18 02:09:57;;;;;;;;;9.33;9.33;;;;;26.20;31.56;101857.41;5018766;28;45585;-68
2022/07/18 02:12:22;;;;;;;;;11.00;11.00;;;;;26.23;31.70;101864.44;5014670;28;45399;-69
2022/07/18 02:14:48;;;;;;;;;9.00;9.00;;;;;26.20;31.58;101857.41;5020933;28;45445;-70
2022/07/18 02:17:13;;;;;;;;;9.67;8.00;;;;;26.25;31.63;101852.03;5015096;28;45546;-69
2022/07/18 02:19:39;;;;;;;;;10.00;10.00;;;;;26.24;31.74;101866.16;5021074;28;47307;-68
2022/07/18 02:22:04;;;;;;;;;13.00;10.00;;;;;26.24;31.61;101874.53;5015945;28;45387;-68
2022/07/18 02:24:30;;;;;;;;;11.00;9.67;;;;;26.22;31.20;101882.28;5022421;28;45367;-68
2022/07/18 02:26:55;;;;;;;;;9.00;8.00;;;;;26.23;31.57;101882.03;5016030;28;45309;-68
2022/07/18 02:29:21;;;;;;;;;12.33;11.00;;;;;26.29;31.37;101880.31;5022103;28;46580;-68
2022/07/18 02:31:46;;;;;;;;;9.33;9.33;;;;;26.30;32.24;101868.09;5016224;28;45347;-68
2022/07/18 02:34:11;;;;;;;;;11.00;9.67;;;;;26.22;32.19;101871.97;5020563;28;45429;-68
2022/07/18 02:36:38;;;;;;;;;10.67;10.33;;;;;26.12;32.41;101876.31;5013393;28;45365;-68
2022/07/18 02:39:05;;;;;;;;;10.67;10.67;;;;;26.05;32.01;101873.59;5008448;28;46309;-67
2022/07/18 02:41:31;;;;;;;;;11.33;11.33;;;;;25.99;32.12;101866.13;5014934;28;45450;-67
2022/07/18 02:43:56;;;;;;;;;10.67;10.67;;;;;26.04;32.00;101876.59;5013973;28;45980;-67
2022/07/18 02:46:21;;;;;;;;;9.67;8.00;;;;;26.12;31.65;101877.19;5014329;28;45523;-67
2022/07/18 02:48:47;;;;;;;;;12.33;11.33;;;;;26.10;31.94;101870.13;5008667;28;47198;-67
2022/07/18 02:51:12;;;;;;;;;15.00;11.00;;;;;26.18;32.18;101883.78;5018891;28;45436;-68
2022/07/18 02:53:37;;;;;;;;;13.67;12.00;;;;;26.07;32.02;101868.66;5013369;28;45314;-68
2022/07/18 02:56:03;;;;;;;;;12.25;12.25;;;;;26.18;31.72;101881.84;5017903;28;45415;-70
2022/07/18 02:58:28;;;;;;;;;12.00;10.00;;;;;26.19;32.29;101880.78;5013219;28;46475;-68
2022/07/18 03:00:54;;;;;;;;;11.33;11.00;;;;;26.20;32.09;101892.78;5015637;28;45290;-68
2022/07/18 03:03:19;;;;;;;;;10.67;10.00;;;;;26.11;32.31;101881.03;5035395;28;46123;-68
2022/07/18 03:05:44;;;;;;;;;10.00;10.00;;;;;26.11;32.61;101882.97;5019271;28;45257;-68
2022/07/18 03:08:10;;;;;;;;;9.75;9.75;;;;;26.12;32.00;101879.97;5032329;28;48020;-68
2022/07/18 03:10:35;;;;;;;;;13.25;11.50;;;;;26.12;32.45;101882.75;5014780;28;45341;-68
2022/07/18 03:13:00;;;;;;;;;12.25;12.25;;;;;26.05;32.55;101881.94;5022044;28;45138;-68
2022/07/18 03:15:26;;;;;;;;;15.00;13.33;;;;;26.08;32.49;101881.47;5022896;28;45372;-68
2022/07/18 03:17:51;;;;;;;;;13.67;12.00;;;;;26.04;32.51;101871.00;5021141;28;47454;-68
2022/07/18 03:20:16;;;;;;;;;17.67;12.67;;;;;26.03;32.54;101860.94;5027848;28;45402;-69
2022/07/18 03:22:42;;;;;;;;;15.75;13.75;;;;;25.81;33.04;101860.44;5019355;28;45393;-69
2022/07/18 03:25:07;;;;;;;;;12.50;12.50;;;;;25.62;33.49;101861.38;5022986;28;45541;-69
2022/07/18 03:27:33;;;;;;;;;16.33;15.67;;;;;25.54;33.97;101866.09;5022188;28;46115;-69
2022/07/18 03:29:58;;;;;;;;;17.75;14.50;;;;;25.49;33.50;101871.47;5024921;28;45442;-69
2022/07/18 03:32:24;;;;;;;;;16.00;13.25;;;;;25.49;34.59;101863.13;5012233;28;45800;-69
2022/07/18 03:34:49;;;;;;;;;18.00;14.25;;;;;25.40;34.26;101852.44;5025170;28;45473;-68
2022/07/18 03:37:14;;;;;;;;;13.25;13.25;;;;;25.32;34.57;101842.41;5016707;28;46590;-69
2022/07/18 03:39:40;;;;;;;;;14.33;13.33;;;;;25.32;33.95;101853.53;5024514;28;45446;-69
2022/07/18 03:42:05;;;;;;;;;16.00;13.75;;;;;25.27;34.48;101839.44;5016736;28;45599;-69
2022/07/18 03:44:30;;;;;;;;;17.00;14.25;;;;;25.21;35.11;101843.06;5022554;28;45351;-69
2022/07/18 03:46:56;;;;;;;;;15.00;12.25;;;;;25.15;34.54;101855.06;5016361;28;45364;-70
2022/07/18 03:49:21;;;;;;;;;14.75;14.00;;;;;25.20;34.66;101846.97;5020493;28;45305;-69
2022/07/18 03:51:46;;;;;;;;;14.50;13.00;;;;;25.25;34.35;101854.63;5018854;28;45837;-69
2022/07/18 03:54:12;;;;;;;;;15.00;14.25;;;;;25.32;34.13;101858.25;5018902;28;46607;-69
2022/07/18 03:56:38;;;;;;;;;16.75;14.00;;;;;25.34;34.61;101859.75;5017633;28;45422;-69
2022/07/18 03:59:03;;;;;;;;;15.75;14.00;;;;;25.42;34.83;101858.66;5016013;28;45449;-69
2022/07/18 04:01:28;;;;;;;;;18.00;15.00;;;;;25.31;34.57;101862.09;5009995;28;45407;-68
2022/07/18 04:03:54;;;;;;;;;16.75;15.00;;;;;25.24;34.58;101864.91;5014669;28;45434;-68
2022/07/18 04:06:19;;;;;;;;;17.00;16.50;;;;;25.24;34.35;101870.47;5021064;28;45990;-68
2022/07/18 04:08:45;;;;;;;;;17.50;16.25;;;;;25.28;34.78;101866.16;5022604;28;45232;-68
2022/07/18 04:11:10;;;;;;;;;15.00;13.50;;;;;25.24;35.37;101862.13;5015799;28;45453;-68
2022/07/18 04:13:36;;;;;;;;;21.25;20.25;;;;;25.25;34.80;101865.75;5023615;28;45620;-68
2022/07/18 04:16:01;;;;;;;;;21.50;18.25;;;;;25.29;34.15;101873.44;5022028;28;46373;-68
2022/07/18 04:18:27;;;;;;;;;15.75;11.00;;;;;25.37;33.84;101870.41;5014065;28;45366;-68
2022/07/18 04:20:52;;;;;;;;;19.25;16.75;;;;;25.43;34.01;101877.03;5021429;28;46290;-68
2022/07/18 04:23:18;;;;;;;;;20.50;19.25;;;;;25.54;33.95;101884.72;5023256;28;45681;-68
2022/07/18 04:25:44;;;;;;;;;19.50;17.25;;;;;25.56;32.89;101868.66;5019288;28;46379;-68
2022/07/18 04:28:11;;;;;;;;;18.75;17.25;;;;;25.52;33.25;101851.53;5022764;28;45232;-68
2022/07/18 04:30:38;;;;;;;;;18.25;17.00;;;;;25.52;33.94;101850.69;5021676;28;45319;-69
2022/07/18 04:33:06;;;;;;;;;22.00;19.00;;;;;25.57;34.25;101839.72;5015373;28;45570;-69
2022/07/18 04:35:35;;;;;;;;;21.50;19.00;;;;;25.54;34.02;101826.28;5021698;28;46108;-68
2022/07/18 04:38:01;;;;;;;;;17.75;16.75;;;;;25.45;34.53;101822.03;5019327;28;45610;-69
2022/07/18 04:40:26;;;;;;;;;17.50;15.50;;;;;25.27;34.48;101822.75;5019691;28;46616;-68
2022/07/18 04:42:51;;;;;;;;;17.50;15.75;;;;;25.23;34.84;101829.81;5016693;28;45441;-68
2022/07/18 04:45:21;;;;;;;;;15.00;13.50;;;;;25.28;34.29;101837.53;5020946;28;46286;-69
2022/07/18 04:47:46;;;;;;;;;15.75;15.25;;;;;25.39;34.16;101828.47;5018155;28;45306;-68
2022/07/18 04:50:12;;;;;;;;;17.75;14.75;;;;;25.42;34.41;101828.91;5022437;28;45176;-68
2022/07/18 04:52:43;;;;;;;;;17.75;15.25;;;;;25.39;34.24;101831.25;5015213;28;45586;-69
2022/07/18 04:55:09;;;;;;;;;15.50;15.50;;;;;25.43;34.13;101813.03;5020927;28;47458;-68
2022/07/18 04:57:35;;;;;;;;;17.25;16.00;;;;;25.45;34.51;101808.13;5015113;28;45352;-69
2022/07/18 05:00:07;;;;;;;;;18.00;13.75;;;;;25.58;34.46;101803.38;5020861;28;45215;-68
2022/07/18 05:02:32;;;;;;;;;11.25;8.00;;;;;25.48;34.62;101796.56;5014015;28;45342;-69
2022/07/18 05:04:57;;;;;;;;;16.67;13.67;;;;;25.56;34.37;101807.44;5019340;28;45481;-68
2022/07/18 05:07:23;;;;;;;;;14.25;14.00;;;;;25.83;34.14;101809.03;5017665;28;45241;-68
2022/07/18 05:09:48;;;;;;;;;17.50;16.50;;;;;26.08;33.82;101797.91;5016280;28;45327;-68
2022/07/18 05:12:13;;;;;;;;;17.00;13.25;;;;;26.11;33.32;101783.56;5017743;28;45313;-69
2022/07/18 05:14:39;;;;;;;;;14.75;13.25;;;;;26.06;34.30;101771.38;5023306;28;45467;-68
2022/07/18 05:17:04;;;;;;;;;19.75;13.25;;;;;26.07;34.47;101768.38;5013251;28;45316;-69
2022/07/18 05:19:30;;;;;;;;;15.75;14.25;;;;;26.12;33.81;101762.13;5022866;28;45340;-68
2022/07/18 05:21:55;;;;;;;;;14.33;14.00;;;;;26.19;33.59;101772.13;5016674;28;45422;-68
2022/07/18 05:24:20;;;;;;;;;13.00;11.75;;;;;26.32;33.85;101785.13;5010426;28;45264;-68
2022/07/18 05:26:46;;;;;;;;;14.50;14.50;;;;;26.32;33.33;101801.84;5015353;28;45389;-67
2022/07/18 05:29:12;;;;;;;;;17.25;16.00;;;;;26.28;32.86;101809.81;5022748;28;45503;-67
2022/07/18 05:31:39;;;;;;;;;17.75;15.50;;;;;26.64;32.52;101822.16;5014806;28;45358;-66
2022/07/18 05:34:05;;;;;;;;;21.00;19.00;;;;;27.45;31.66;101841.47;5021214;28;47575;-68
2022/07/18 05:36:30;;;;;;;;;14.50;14.50;;;;;28.22;30.29;101842.59;5011024;28;45465;-67
2022/07/18 05:38:56;;;;;;;;;21.00;20.00;;;;;27.98;30.95;101844.44;5016395;28;45316;-68
2022/07/18 05:41:21;;;;;;;;;18.00;15.25;;;;;27.65;31.08;101844.91;5016575;28;45554;-68
2022/07/18 05:43:46;;;;;;;;;19.00;16.75;;;;;27.43;31.38;101838.91;5016031;28;46724;-69
2022/07/18 05:46:12;;;;;;;;;15.25;13.50;;;;;27.43;31.32;101836.13;5015742;28;45469;-68
2022/07/18 05:48:37;;;;;;;;;13.75;13.75;;;;;27.49;30.97;101837.13;5036745;28;45385;-69
2022/07/18 05:51:03;;;;;;;;;14.00;13.25;;;;;27.44;31.28;101839.78;5016933;28;45324;-67
2022/07/18 05:53:28;;;;;;;;;16.25;16.25;;;;;27.36;30.78;101826.13;5012833;28;45674;-68
2022/07/18 05:55:53;;;;;;;;;15.50;15.00;;;;;27.17;31.48;101843.97;5016423;28;45668;-69
2022/07/18 05:58:19;;;;;;;;;15.25;13.50;;;;;27.17;31.63;101830.88;5011140;28;45359;-68
2022/07/18 06:00:44;;;;;;;;;16.00;15.25;;;;;27.42;31.58;101834.41;5016475;28;45353;-69
2022/07/18 06:03:10;;;;;;;;;15.25;14.00;;;;;27.47;31.25;101840.13;5012669;28;46734;-67
2022/07/18 06:05:36;;;;;;;;;17.25;15.25;;;;;27.63;31.17;101835.03;5018233;28;45465;-68
2022/07/18 06:08:02;;;;;;;;;14.00;12.75;;;;;27.73;30.77;101832.56;5014897;28;45318;-68
2022/07/18 06:10:27;;;;;;;;;17.25;14.50;;;;;27.82;30.36;101826.41;5016156;28;45425;-68
2022/07/18 06:12:53;;;;;;;;;11.00;11.00;;;;;27.88;30.41;101828.25;5018695;28;45804;-69
2022/07/18 06:15:19;;;;;;;;;13.67;12.00;;;;;27.86;30.14;101826.78;5017744;28;45242;-67
2022/07/18 06:17:44;;;;;;;;;15.00;13.00;;;;;27.77;30.50;101833.78;5016771;28;45455;-69
2022/07/18 06:20:10;;;;;;;;;12.33;12.33;;;;;27.83;29.98;101822.50;5024361;28;45432;-69
2022/07/18 06:22:36;;;;;;;;;4.33;3.00;;;;;27.91;30.35;101823.28;5016200;28;45569;-69
2022/07/18 06:25:03;;;;;;;;;12.33;11.00;;;;;28.00;30.29;101835.81;5021149;28;45681;-68
2022/07/18 06:27:28;;;;;;;;;21.25;19.25;;;;;27.95;30.10;101836.53;5014629;28;45473;-70
2022/07/18 06:29:53;;;;;;;;;12.00;12.00;;;;;27.88;30.36;101836.63;5019474;28;45426;-68
2022/07/18 06:32:19;;;;;;;;;12.33;10.33;;;;;28.17;30.08;101836.88;5014231;28;46726;-68
2022/07/18 06:34:44;;;;;;;;;14.00;14.00;;;;;28.35;29.74;101830.34;5020365;28;45216;-69
2022/07/18 06:37:10;;;;;;;;;12.67;9.00;;;;;28.47;29.49;101843.28;5012493;28;45293;-67
2022/07/18 06:39:35;;;;;;;;;12.75;12.75;;;;;28.54;29.87;101835.63;5018438;28;45347;-68
2022/07/18 06:42:00;;;;;;;;;13.67;10.00;;;;;28.51;29.97;101833.31;5015220;28;46553;-68
2022/07/18 06:44:26;;;;;;;;;10.00;10.00;;;;;28.63;29.68;101834.19;5019561;28;45366;-68
2022/07/18 06:46:52;;;;;;;;;15.00;13.00;;;;;28.77;29.62;101823.66;5017855;28;46160;-68
2022/07/18 06:49:18;;;;;;;;;11.00;11.00;;;;;28.87;29.39;101828.63;5017838;28;45414;-68
2022/07/18 06:51:43;;;;;;;;;12.00;12.00;;;;;28.78;29.55;101825.34;5019636;28;45823;-67
2022/07/18 06:54:09;;;;;;;;;12.50;11.00;;;;;28.95;29.14;101828.25;5021989;28;45406;-68
2022/07/18 06:56:35;;;;;;;;;14.00;11.33;;;;;29.09;29.15;101828.84;5010555;28;45357;-68
2022/07/18 06:59:00;;;;;;;;;13.75;12.25;;;;;29.20;28.78;101839.19;5021787;28;45546;-68
2022/07/18 07:01:25;;;;;;;;;17.25;12.50;;;;;29.06;29.03;101824.59;5019628;28;45575;-68
2022/07/18 07:03:51;;;;;;;;;13.00;12.25;;;;;29.26;28.73;101839.06;5021679;28;45375;-68
2022/07/18 07:06:16;;;;;;;;;14.00;12.00;;;;;29.05;29.16;101845.28;5020779;28;45461;-68
2022/07/18 07:08:42;;;;;;;;;17.75;13.50;;;;;29.10;29.21;101845.41;5022485;28;45273;-68
2022/07/18 07:11:08;;;;;;;;;12.75;11.00;;;;;29.27;28.86;101846.34;5013441;28;45483;-67
2022/07/18 07:13:33;;;;;;;;;15.00;13.25;;;;;29.56;28.76;101843.66;5020127;28;45327;-68
2022/07/18 07:15:59;;;;;;;;;11.00;11.00;;;;;29.72;28.17;101838.13;5019547;28;45341;-68
2022/07/18 07:18:24;;;;;;;;;10.50;9.25;;;;;29.80;28.13;101839.69;5023936;28;45652;-67
2022/07/18 07:20:49;;;;;;;;;13.00;12.00;;;;;29.91;28.47;101830.34;5021171;28;46424;-68
2022/07/18 07:23:16;;;;;;;;;10.25;10.25;;;;;29.88;27.80;101819.63;5030103;28;45446;-68
2022/07/18 07:25:42;;;;;;;;;12.00;12.00;;;;;30.04;28.10;101829.22;5021364;28;45407;-67
2022/07/18 07:28:08;;;;;;;;;11.00;11.00;;;;;30.18;27.57;101828.66;5019858;28;45411;-68
2022/07/18 07:30:34;;;;;;;;;13.25;12.50;;;;;30.18;27.61;101833.41;5021499;28;46158;-68
2022/07/18 07:33:00;;;;;;;;;8.25;8.00;;;;;30.43;26.86;101827.41;5014667;28;45301;-68
2022/07/18 07:35:26;;;;;;;;;10.75;10.75;;;;;30.60;26.44;101833.06;5014337;28;45512;-68
2022/07/18 07:37:54;;;;;;;;;13.25;10.00;;;;;30.80;26.56;101827.78;5021179;28;45475;-68
2022/07/18 07:40:21;;;;;;;;;10.50;9.00;;;;;30.94;26.30;101823.50;5022607;28;45260;-68
2022/07/18 07:42:47;;;;;;;;;10.75;8.75;;;;;31.09;25.33;101822.91;5035929;28;45501;-67
2022/07/18 07:45:13;;;;;;;;;11.25;10.00;;;;;31.10;25.62;101816.19;5023245;28;45240;-67
2022/07/18 07:47:39;;;;;;;;;12.00;9.00;;;;;31.23;26.23;101811.03;5018393;28;45411;-67
2022/07/18 07:50:07;;;;;;;;;12.00;9.75;;;;;31.13;25.45;101799.66;5023616;28;46385;-68
2022/07/18 07:52:32;;;;;;;;;12.25;10.50;;;;;31.39;25.77;101797.19;5016469;28;45395;-67
2022/07/18 07:54:57;;;;;;;;;10.00;8.50;;;;;31.50;25.58;101797.06;5022664;28;45327;-68
2022/07/18 07:57:23;;;;;;;;;13.00;13.00;;;;;31.68;25.02;101801.53;5022351;28;45349;-67
2022/07/18 07:59:49;;;;;;;;;11.00;10.00;;;;;31.73;25.13;101803.53;5039083;28;48222;-67
2022/07/18 08:02:18;;;;;;;;;12.50;11.75;;;;;31.98;24.76;101812.25;5015887;28;45461;-66
2022/07/18 08:04:44;;;;;;;;;12.75;12.25;;;;;32.14;24.50;101807.63;5023758;28;45354;-66
2022/07/18 08:07:09;;;;;;;;;14.50;11.50;;;;;32.22;24.57;101799.56;5013779;28;45359;-68
2022/07/18 08:09:35;;;;;;;;;13.25;9.00;;;;;32.34;24.37;101800.28;5021786;28;46681;-69
2022/07/18 08:12:00;;;;;;;;;13.25;13.00;;;;;32.22;24.37;101799.56;5016388;28;45528;-68
2022/07/18 08:14:26;;;;;;;;;9.75;9.75;;;;;32.40;24.48;101801.16;5022535;28;45478;-71
2022/07/18 08:16:51;;;;;;;;;9.25;9.25;;;;;32.61;24.26;101796.53;5017376;28;45384;-71
2022/07/18 08:19:17;;;;;;;;;10.75;8.00;;;;;32.74;23.91;101788.50;5015788;28;45676;-66
2022/07/18 08:21:42;;;;;;;;;12.25;10.00;;;;;32.91;24.24;101782.69;5014550;28;45306;-67
2022/07/18 08:24:08;;;;;;;;;11.50;9.50;;;;;32.92;23.33;101789.19;5017653;28;45348;-67
2022/07/18 08:26:35;;;;;;;;;8.50;8.00;;;;;33.06;23.81;101791.25;5018357;28;45537;-68
2022/07/18 08:29:01;;;;;;;;;9.00;7.33;;;;;33.32;23.72;101792.22;5023306;28;46734;-69
2022/07/18 08:31:27;;;;;;;;;9.50;7.75;;;;;33.47;23.07;101785.81;5031173;28;45339;-68
2022/07/18 08:33:52;;;;;;;;;9.00;7.75;;;;;33.67;23.19;101790.69;5011128;28;45405;-68
2022/07/18 08:36:20;;;;;;;;;11.00;8.75;;;;;33.77;22.90;101788.75;5017274;28;45311;-68
2022/07/18 08:38:45;;;;;;;;;10.75;8.25;;;;;33.90;23.05;101785.41;5012771;28;46488;-68
2022/07/18 08:41:10;;;;;;;;;7.00;7.00;;;;;34.00;22.78;101785.44;5017250;28;45484;-68
2022/07/18 08:43:36;;;;;;;;;7.75;7.75;;;;;33.91;22.62;101775.81;5009724;28;45468;-69
2022/07/18 08:46:03;;;;;;;;;6.75;6.75;;;;;34.10;23.11;101795.03;5020698;28;45486;-68
2022/07/18 08:48:30;;;;;;;;;10.75;10.50;;;;;34.30;22.32;101795.06;5014904;28;45326;-66
2022/07/18 08:50:56;;;;;;;;;11.75;9.25;;;;;34.36;21.32;101791.13;5018083;28;45402;-66
2022/07/18 08:53:21;;;;;;;;;10.00;8.50;;;;;34.28;22.15;101797.31;5013519;28;45575;-67
2022/07/18 08:55:48;;;;;;;;;10.25;9.75;;;;;34.53;21.78;101791.69;5016322;28;45347;-68
2022/07/18 08:58:17;;;;;;;;;11.00;9.75;;;;;34.80;21.47;101799.00;5021209;28;45330;-67
2022/07/18 09:00:44;;;;;;;;;8.50;7.75;;;;;35.07;20.83;101779.72;5018876;28;45509;-67
2022/07/18 09:03:10;;;;;;;;;9.50;9.50;;;;;35.15;21.35;101784.78;5021327;28;45506;-67
2022/07/18 09:05:35;;;;;;;;;9.25;8.25;;;;;35.29;19.97;101791.56;5018819;28;45398;-68
2022/07/18 09:08:27;;;;;;;;;9.00;9.00;;;;;34.84;20.75;101789.72;5020320;28;45646;-68
2022/07/18 09:10:55;;;;;;;;;10.00;9.75;;;;;34.72;21.17;101780.69;5015772;28;45355;-66
2022/07/18 09:13:29;;;;;;;;;37.25;32.75;;;;;35.12;20.95;101782.56;5018847;28;45276;-67
2022/07/18 09:15:58;;;;;;;;;10.75;9.00;;;;;35.49;20.11;101785.84;5019100;28;45262;-68
2022/07/18 09:18:29;;;;;;;;;10.75;8.25;;;;;35.66;18.89;101785.44;5019280;28;46893;-68
2022/07/18 09:20:59;;;;;;;;;6.25;6.25;;;;;35.79;18.68;101786.84;5020919;28;45430;-68
2022/07/18 09:23:31;;;;;;;;;5.50;5.50;;;;;36.06;19.51;101792.88;5017547;28;45360;-68
2022/07/18 09:25:56;;;;;;;;;8.00;8.00;;;;;36.41;18.68;101799.41;5018481;28;45470;-68
2022/07/18 09:28:21;;;;;;;;;7.00;7.00;;;;;36.43;18.65;101791.47;5019407;28;46756;-67
2022/07/18 09:30:47;;;;;;;;;6.75;6.75;;;;;36.76;18.65;101796.28;5012943;28;45401;-67
2022/07/18 09:33:12;;;;;;;;;9.25;9.25;;;;;37.05;19.09;101799.91;5014480;28;45410;-68
2022/07/18 09:35:44;;;;;;;;;6.00;6.00;;;;;37.37;18.74;101787.94;5021458;28;45418;-68
2022/07/18 09:38:16;;;;;;;;;7.50;5.75;;;;;37.63;18.46;101791.31;5016821;28;48222;-68
2022/07/18 09:40:47;;;;;;;;;0.00;0.00;;;;;37.85;17.60;101798.38;5011115;28;45395;-68
2022/07/18 09:43:18;;;;;;;;;6.75;5.75;;;;;37.97;17.11;101801.59;5015260;28;45389;-68
2022/07/18 09:45:49;;;;;;;;;5.00;5.00;;;;;37.99;18.07;101796.47;5019571;28;45382;-68
2022/07/18 09:48:19;;;;;;;;;6.25;6.25;;;;;38.20;17.73;101795.03;5018427;28;45340;-68
2022/07/18 09:50:55;;;;;;;;;9.25;7.50;;;;;38.10;17.32;101796.03;5005427;28;45394;-68
2022/07/18 09:53:23;;;;;;;;;8.75;7.50;;;;;38.27;16.46;101798.31;5014249;28;45313;-69
2022/07/18 09:56:00;;;;;;;;;4.25;4.00;;;;;38.40;17.93;101797.53;5034612;28;45319;-68
2022/07/18 09:58:28;;;;;;;;;8.25;7.25;;;;;38.34;16.82;101789.41;5024109;28;48141;-67
2022/07/18 10:00:55;;;;;;;;;8.75;6.75;;;;;38.43;17.41;101793.22;5019515;28;45343;-68
2022/07/18 10:03:21;;;;;;;;;8.50;7.00;;;;;38.82;16.78;101785.13;5021561;28;45170;-68
2022/07/18 10:05:48;;;;;;;;;8.75;7.75;;;;;38.91;16.74;101777.56;5022671;28;45289;-68
2022/07/18 10:08:17;;;;;;;;;6.00;6.00;;;;;39.12;16.80;101775.19;5022089;28;45344;-68
2022/07/18 10:10:45;;;;;;;;;4.75;4.75;;;;;39.43;15.87;101771.72;5011992;28;45511;-68
2022/07/18 10:13:12;;;;;;;;;7.50;7.50;;;;;39.49;16.11;101779.00;5018921;28;45499;-67
2022/07/18 10:15:39;;;;;;;;;8.00;6.50;;;;;39.27;16.73;101769.19;5019953;28;45303;-68
2022/07/18 10:18:08;;;;;;;;;7.00;7.00;;;;;39.48;16.17;101777.28;5021642;28;45399;-68
2022/07/18 10:20:37;;;;;;;;;9.25;7.50;;;;;39.46;16.20;101765.38;5023373;28;45419;-67
2022/07/18 10:23:31;;;;;;;;;10.25;9.25;;;;;39.43;16.09;101766.88;5024189;28;45421;-67
2022/07/18 10:26:15;;;;;;;;;11.75;11.75;;;;;39.84;15.70;101772.50;5022810;28;45385;-67
2022/07/18 10:28:55;;;;;;;;;9.25;9.25;;;;;39.96;15.85;101764.25;5022068;28;45791;-67
2022/07/18 10:31:23;;;;;;;;;12.75;12.75;;;;;40.18;15.96;101763.44;5021192;28;45336;-67
2022/07/18 10:33:50;;;;;;;;;13.50;11.75;;;;;40.59;16.29;101757.53;5023136;28;45366;-67
2022/07/18 10:36:20;;;;;;;;;9.25;9.25;;;;;41.00;15.40;101757.25;5020605;28;45358;-68
2022/07/18 10:39:05;;;;;;;;;11.00;10.50;;;;;41.34;15.00;101764.28;5017157;28;47593;-68
2022/07/18 10:41:31;;;;;;;;;7.75;7.75;;;;;41.52;15.57;101749.72;5019011;28;46788;-68
2022/07/18 10:43:57;;;;;;;;;51.50;44.00;;;;;41.87;14.99;101742.03;5020725;28;45374;-68
2022/07/18 10:46:22;;;;;;;;;21.75;20.75;;;;;42.09;14.86;101737.34;5025102;28;45398;-68
2022/07/18 10:48:53;;;;;;;;;9.50;8.00;;;;;41.96;15.07;101736.34;5027750;28;48180;-69
2022/07/18 10:51:19;;;;;;;;;39.00;35.00;;;;;42.31;14.49;101749.41;5015245;28;45398;-70
2022/07/18 10:53:54;;;;;;;;;49.00;41.00;;;;;42.10;14.13;101747.59;5023914;28;45447;-68
2022/07/18 10:56:20;;;;;;;;;8.50;8.50;;;;;42.36;13.92;101751.28;5013304;28;45285;-68
2022/07/18 10:58:45;;;;;;;;;20.00;19.50;;;;;42.59;13.10;101741.31;5017901;28;45469;-68
2022/07/18 11:01:16;;;;;;;;;12.25;11.25;;;;;42.82;12.26;101738.22;5034240;28;45334;-68
2022/07/18 11:03:42;;;;;;;;;5.75;5.75;;;;;42.80;13.53;101752.88;5022737;28;45299;-68
2022/07/18 11:06:07;;;;;;;;;7.50;6.00;;;;;42.99;13.16;101741.00;5021336;28;45511;-68
2022/07/18 11:08:33;;;;;;;;;4.50;4.50;;;;;43.10;12.48;101743.16;5025703;28;45531;-66
2022/07/18 11:11:05;;;;;;;;;7.00;7.00;;;;;43.18;13.29;101740.63;5024835;28;45236;-67
2022/07/18 11:13:36;;;;;;;;;6.00;6.00;;;;;43.21;12.84;101746.47;5025412;28;45426;-67